Aeroporto :
LOGIN :

Iscrizione | Disclaimer

   EN    FR    IT 

 










Sommario :    VFR   VFR Marginale   IFR   IFR Intensivo   IFR Molto Intensivo
Visibilità : 
Base nubi : 
>= 8 km
>= 3000ft
5 / 8 km
1000 / 3000 ft
1500m / 5 km
500 / 1000 ft
800 / 1500m
200 / 500 ft
< 800m
< 200 ft
Simboli :   Temporali  Nebbia  Neve Forte  Precipitazioni Forti  Vento > 20 kt
SIGMETs :   Varie  Temporali  Ghiacco  Turbolenza  Onda orograficha  Ceneri Vulcaniche






- Altitudine del aeroporto : 299 ft
- Codice IATA : EDM


LFRI - La Roche Sur Yon - Les Ajoncs

ULTIMO METAR :
  • 240930Z AUTO 30007KT 250V330 9999 FEW019 BKN058 12/08 Q1018 TEMPO BKN030TCU

METARs OBSOLETI :
  • 240900Z AUTO 28005KT 250V320 9999 FEW009 BKN013 BKN018 11/08 Q1019 TEMPO BKN030TCU
  • 240830Z AUTO VRB03KT 9999 FEW008 OVC056 10/08 Q1019 TEMPO BKN030TCU
  • 240800Z AUTO 31004KT 9000 BKN007 OVC056 09/08 Q1019 BECMG BKN040
  • 240730Z AUTO 30004KT 270V330 9999 BKN007 OVC060 09/08 Q1019 BECMG BKN040
  • 240700Z AUTO 32004KT 280V360 8000 BKN005 OVC049 09/08 Q1019 TEMPO 4000 BR BECMG BKN040
  • 240630Z AUTO 32004KT 7000 BKN005 OVC046 08/08 Q1019 TEMPO 4000 BR BECMG BKN040
  • 240600Z AUTO 34003KT 6000 SCT005 BKN048 OVC062 08/08 Q1019 TEMPO 4000 BR BKN009
  • 240530Z AUTO 34004KT 7000 BKN006 OVC047 08/08 Q1019 TEMPO 4000 BR
  • 240500Z AUTO 30003KT 5000 BR BKN009 BKN013 BKN019 08/08 Q1019
  • 240430Z AUTO 33002KT 7000 SCT013 BKN019 BKN052 08/07 Q1019

TAF AMD TAF LFRI
Valido dal 24 a 06 ore il 25 a 06 ore UTC


240649Z 2406/2506 30004KT 9999 BKN040
PROB40
TEMPO 2406/2408 4000 BR BKN004
PROB30
TEMPO 2410/2422 -SHRA BKN030TCU
PROB30
TEMPO 2502/2506 0800 FG VV///



MetMap, La meteo Aeronautica in un colpo d'occhio ! - Copyright ORBIFLY Dicembre 2007 - Disclaimer

ORBIFLY MET'MAP TEAM :

Programmazione e sviluppo : Alexandra Zaïnal
Concezione : Baudouin d'Aumeries
Supporto tecnico e logistico : Manuel Goepfert
Aiuto : Marc-Olivier Méhu
Aiuto per la traduzione : Arnaldo La Scala




FONTI E CREDITI :

   NOAA